Time;durP1;ratioP1;P1;durP2;ratioP2;P2;SDS_P1;SDS_P2;PMS_P1;PMS_P2;Temp;Humidity;BMP_temperature;BMP_pressure;BME280_temperature;BME280_humidity;BME280_pressure;Samples;Min_cycle;Max_cycle;Signal;HPM_P1;HPM_P2
2022/12/28 00:00:23;;;;;;;16.05;7.90;;;;;;;;;;5118416;28;20118;-91
2022/12/28 00:02:49;;;;;;;14.80;8.35;;;;;;;;;;5100805;28;20026;-92
2022/12/28 00:05:16;;;;;;;18.65;8.98;;;;;;;;;;5098051;28;20154;-91
2022/12/28 00:07:43;;;;;;;17.70;10.15;;;;;;;;;;5097818;28;20031;-92
2022/12/28 00:10:09;;;;;;;20.48;10.35;;;;;;;;;;5097781;28;20024;-91
2022/12/28 00:12:35;;;;;;;19.70;10.30;;;;;;;;;;5097822;28;20469;-90
2022/12/28 00:15:01;;;;;;;18.50;10.15;;;;;;;;;;5100496;28;20024;-91
2022/12/28 00:17:27;;;;;;;19.42;10.30;;;;;;;;;;5098838;28;20095;-91
2022/12/28 00:19:53;;;;;;;19.17;10.20;;;;;;;;;;5098513;28;20043;-92
2022/12/28 00:22:19;;;;;;;34.25;15.75;;;;;;;;;;5103694;28;20019;-93
2022/12/28 00:24:45;;;;;;;45.88;23.08;;;;;;;;;;5110905;28;20024;-91
2022/12/28 00:27:11;;;;;;;45.97;23.45;;;;;;;;;;5098692;28;20087;-90
2022/12/28 00:29:38;;;;;;;35.63;17.85;;;;;;;;;;5102321;28;20036;-91
2022/12/28 00:32:04;;;;;;;17.52;8.90;;;;;;;;;;5115560;28;20023;-90
2022/12/28 00:40:51;;;;;;;10.80;5.80;;;;;;;;;;5111817;28;20114;-92
2022/12/28 00:43:17;;;;;;;10.38;5.60;;;;;;;;;;5118810;28;20032;-90
2022/12/28 00:45:44;;;;;;;19.50;8.93;;;;;;;;;;5118587;28;20027;-91
2022/12/28 00:48:10;;;;;;;19.73;7.82;;;;;;;;;;5118832;28;20019;-90
2022/12/28 00:56:45;;;;;;;14.13;6.53;;;;;;;;;;5110644;28;20135;-91
2022/12/28 00:59:11;;;;;;;11.48;5.85;;;;;;;;;;5100349;28;20119;-92
2022/12/28 01:01:38;;;;;;;11.18;5.70;;;;;;;;;;5117530;28;20298;-92
2022/12/28 01:10:11;;;;;;;20.70;9.73;;;;;;;;;;5104258;28;20085;-90
2022/12/28 01:12:37;;;;;;;14.52;7.18;;;;;;;;;;5098002;28;20024;-90
2022/12/28 01:15:04;;;;;;;13.98;6.50;;;;;;;;;;5100849;28;20107;-90
2022/12/28 01:17:30;;;;;;;14.60;7.13;;;;;;;;;;5096873;28;20017;-92
2022/12/28 01:19:56;;;;;;;16.23;7.43;;;;;;;;;;5102229;28;20028;-91
2022/12/28 01:22:22;;;;;;;31.40;10.90;;;;;;;;;;5109203;28;20050;-91
2022/12/28 01:24:48;;;;;;;37.83;11.65;;;;;;;;;;5096787;28;20016;-91
2022/12/28 01:27:14;;;;;;;44.97;15.55;;;;;;;;;;5096797;28;20032;-91
2022/12/28 01:29:40;;;;;;;43.30;14.68;;;;;;;;;;5096645;28;20173;-90
2022/12/28 01:32:06;;;;;;;32.55;11.60;;;;;;;;;;5097664;28;20464;-91
2022/12/28 01:34:32;;;;;;;29.98;10.95;;;;;;;;;;5099093;28;20413;-90
2022/12/28 01:36:58;;;;;;;23.45;10.15;;;;;;;;;;5113829;28;20420;-90
2022/12/28 01:39:25;;;;;;;23.58;8.95;;;;;;;;;;5096616;28;20048;-90
2022/12/28 01:41:51;;;;;;;13.02;6.65;;;;;;;;;;5097815;28;20047;-90
2022/12/28 01:44:17;;;;;;;11.73;5.50;;;;;;;;;;5097745;28;20107;-91
2022/12/28 01:46:49;;;;;;;11.27;5.15;;;;;;;;;;5097724;28;20074;-92
2022/12/28 01:52:18;;;;;;;15.02;6.90;;;;;;;;;;5097685;28;20058;-90
2022/12/28 01:54:47;;;;;;;12.57;7.43;;;;;;;;;;5097641;28;20020;-90
2022/12/28 01:57:14;;;;;;;13.00;6.43;;;;;;;;;;5098071;28;20020;-90
2022/12/28 01:59:42;;;;;;;14.82;6.57;;;;;;;;;;5097658;28;20075;-91
2022/12/28 02:02:09;;;;;;;12.43;7.03;;;;;;;;;;5097418;28;20021;-90
2022/12/28 02:04:35;;;;;;;13.38;7.25;;;;;;;;;;5098788;28;20020;-90
2022/12/28 02:07:01;;;;;;;18.02;8.32;;;;;;;;;;5117690;28;20024;-91
2022/12/28 02:09:31;;;;;;;13.25;6.80;;;;;;;;;;5117733;28;20024;-91
2022/12/28 02:11:58;;;;;;;14.15;6.45;;;;;;;;;;5100761;28;20032;-90
2022/12/28 02:14:25;;;;;;;16.05;6.90;;;;;;;;;;5105819;28;20097;-89
2022/12/28 02:16:51;;;;;;;13.65;8.27;;;;;;;;;;5096261;28;20044;-90
2022/12/28 02:19:20;;;;;;;14.70;7.38;;;;;;;;;;5096273;28;20035;-89
2022/12/28 02:21:56;;;;;;;14.73;6.82;;;;;;;;;;5096329;28;20028;-91
2022/12/28 02:24:35;;;;;;;13.10;5.90;;;;;;;;;;5101788;28;20018;-90
2022/12/28 02:27:19;;;;;;;10.65;5.72;;;;;;;;;;5100687;28;20103;-89
2022/12/28 02:30:01;;;;;;;10.82;5.35;;;;;;;;;;5113275;28;20052;-90
2022/12/28 02:32:33;;;;;;;14.02;6.22;;;;;;;;;;5100722;28;20040;-90
2022/12/28 02:35:07;;;;;;;12.43;6.22;;;;;;;;;;5107177;28;20023;-90
2022/12/28 02:37:36;;;;;;;10.27;5.65;;;;;;;;;;5121131;28;20027;-89
2022/12/28 02:40:06;;;;;;;15.50;9.32;;;;;;;;;;5121497;28;20028;-90
2022/12/28 02:42:34;;;;;;;14.13;7.53;;;;;;;;;;5103940;28;20020;-91
2022/12/28 02:53:43;;;;;;;9.25;4.70;;;;;;;;;;5100747;28;20062;-91
2022/12/28 02:56:30;;;;;;;11.32;4.72;;;;;;;;;;5118631;28;20019;-91
2022/12/28 02:59:16;;;;;;;11.05;4.57;;;;;;;;;;5120261;27;20023;-91
2022/12/28 03:01:54;;;;;;;14.18;5.20;;;;;;;;;;5104215;28;20020;-91
2022/12/28 03:10:20;;;;;;;10.20;4.80;;;;;;;;;;5120724;28;20051;-92
2022/12/28 03:12:57;;;;;;;9.68;5.25;;;;;;;;;;5113049;28;20020;-92
2022/12/28 03:15:28;;;;;;;8.82;4.30;;;;;;;;;;5098962;28;20091;-92
2022/12/28 03:32:24;;;;;;;12.55;6.20;;;;;;;;;;5120412;28;20118;-92
2022/12/28 03:34:51;;;;;;;16.20;6.45;;;;;;;;;;5118799;28;20032;-93
2022/12/28 03:37:24;;;;;;;11.25;6.32;;;;;;;;;;5101198;28;20028;-92
2022/12/28 03:39:52;;;;;;;12.77;7.45;;;;;;;;;;5118927;28;20047;-92
2022/12/28 03:45:15;;;;;;;13.13;7.15;;;;;;;;;;5119820;28;20031;-91
2022/12/28 03:47:42;;;;;;;10.98;6.68;;;;;;;;;;5119639;28;20448;-91
2022/12/28 03:50:08;;;;;;;12.30;5.95;;;;;;;;;;5119915;28;20349;-92
2022/12/28 03:52:34;;;;;;;13.85;6.40;;;;;;;;;;5118773;28;20337;-92
2022/12/28 03:55:01;;;;;;;16.45;7.65;;;;;;;;;;5118691;28;20031;-93
2022/12/28 03:57:27;;;;;;;13.07;6.90;;;;;;;;;;5118704;28;20083;-91
2022/12/28 03:59:53;;;;;;;16.48;7.85;;;;;;;;;;5119712;28;20050;-92
2022/12/28 04:02:19;;;;;;;12.93;7.38;;;;;;;;;;5119827;28;20020;-91
2022/12/28 04:04:45;;;;;;;15.48;8.65;;;;;;;;;;5118175;28;20062;-91
2022/12/28 04:07:11;;;;;;;13.65;6.97;;;;;;;;;;5119673;28;20027;-91
2022/12/28 04:09:37;;;;;;;16.13;8.23;;;;;;;;;;5119730;28;20028;-92
2022/12/28 04:12:03;;;;;;;15.48;8.13;;;;;;;;;;5119663;28;20115;-90
2022/12/28 04:14:29;;;;;;;17.17;7.55;;;;;;;;;;5117780;28;20057;-90
2022/12/28 04:16:55;;;;;;;14.32;7.72;;;;;;;;;;5119323;28;20055;-91
2022/12/28 04:19:21;;;;;;;19.40;10.77;;;;;;;;;;5116473;28;20028;-91
2022/12/28 04:24:51;;;;;;;18.10;8.75;;;;;;;;;;5107249;28;20034;-91
2022/12/28 04:27:17;;;;;;;16.38;8.18;;;;;;;;;;5106191;28;20020;-91
2022/12/28 04:29:43;;;;;;;22.30;9.27;;;;;;;;;;5115641;28;20051;-90
2022/12/28 04:32:09;;;;;;;19.67;9.80;;;;;;;;;;5118741;28;20019;-91
2022/12/28 04:37:40;;;;;;;27.88;12.38;;;;;;;;;;5119036;28;20093;-90
2022/12/28 04:40:06;;;;;;;19.73;10.63;;;;;;;;;;5117704;28;20131;-91
2022/12/28 04:42:32;;;;;;;23.63;11.35;;;;;;;;;;5117259;28;20126;-89
2022/12/28 04:44:58;;;;;;;27.70;13.20;;;;;;;;;;5101197;28;20016;-90
2022/12/28 04:47:24;;;;;;;24.83;12.65;;;;;;;;;;5118206;28;20023;-90
2022/12/28 04:53:08;;;;;;;24.90;12.57;;;;;;;;;;5103560;28;20061;-89
2022/12/28 04:55:34;;;;;;;25.63;13.43;;;;;;;;;;5114265;28;20024;-89
2022/12/28 04:58:00;;;;;;;28.15;13.30;;;;;;;;;;5098103;28;20024;-90
2022/12/28 05:00:26;;;;;;;26.52;13.52;;;;;;;;;;5098191;28;20047;-90
2022/12/28 05:02:52;;;;;;;22.95;12.88;;;;;;;;;;5098122;28;20019;-89
2022/12/28 05:08:22;;;;;;;22.80;11.73;;;;;;;;;;5098059;28;20057;-90
2022/12/28 05:10:48;;;;;;;21.55;12.15;;;;;;;;;;5097638;28;20035;-91
2022/12/28 05:13:14;;;;;;;37.10;18.38;;;;;;;;;;5107017;28;20033;-90
2022/12/28 05:15:40;;;;;;;143.70;71.63;;;;;;;;;;5117317;28;20118;-90
2022/12/28 05:18:06;;;;;;;73.85;41.28;;;;;;;;;;5118183;28;20020;-90
2022/12/28 05:20:32;;;;;;;71.57;43.08;;;;;;;;;;5099736;28;20012;-90
2022/12/28 05:22:58;;;;;;;88.35;55.00;;;;;;;;;;5096660;28;20024;-92
2022/12/28 05:25:24;;;;;;;92.78;57.13;;;;;;;;;;5096808;28;20016;-91
2022/12/28 05:27:50;;;;;;;96.43;57.03;;;;;;;;;;5097757;28;20024;-90
2022/12/28 05:30:16;;;;;;;80.35;49.95;;;;;;;;;;5112924;28;20068;-91
2022/12/28 05:32:42;;;;;;;69.55;44.10;;;;;;;;;;5116952;28;20076;-92
2022/12/28 05:38:12;;;;;;;72.03;42.72;;;;;;;;;;5117937;28;20039;-88
2022/12/28 05:40:38;;;;;;;86.28;49.95;;;;;;;;;;5117979;28;20057;-88
2022/12/28 05:43:04;;;;;;;147.82;85.28;;;;;;;;;;5118364;28;20020;-89
2022/12/28 05:45:30;;;;;;;231.00;123.30;;;;;;;;;;5116969;28;20102;-89
2022/12/28 05:47:56;;;;;;;242.85;125.90;;;;;;;;;;5103935;28;20024;-90
2022/12/28 05:54:03;;;;;;;318.35;125.10;;;;;;;;;;5117959;28;20073;-90
2022/12/28 05:56:30;;;;;;;192.15;82.30;;;;;;;;;;5116940;28;20032;-90
2022/12/28 05:59:00;;;;;;;183.10;75.97;;;;;;;;;;5117743;28;20073;-89
2022/12/28 06:01:27;;;;;;;223.13;90.53;;;;;;;;;;5120419;28;20489;-90
2022/12/28 06:03:58;;;;;;;207.77;83.35;;;;;;;;;;5122105;28;20027;-89
2022/12/28 06:09:34;;;;;;;406.73;141.35;;;;;;;;;;5101316;28;20245;-89
2022/12/28 06:12:00;;;;;;;300.50;101.25;;;;;;;;;;5101260;28;20077;-89
2022/12/28 06:14:26;;;;;;;211.38;79.18;;;;;;;;;;5100420;28;20115;-88
2022/12/28 06:16:52;;;;;;;170.32;65.82;;;;;;;;;;5100148;28;20031;-89
2022/12/28 06:19:18;;;;;;;220.45;70.82;;;;;;;;;;5101328;28;20344;-88
2022/12/28 06:21:44;;;;;;;187.90;61.75;;;;;;;;;;5100826;28;20020;-89
2022/12/28 06:24:10;;;;;;;213.77;63.78;;;;;;;;;;5100352;28;20035;-88
2022/12/28 06:26:37;;;;;;;204.65;62.53;;;;;;;;;;5120632;28;20030;-90
2022/12/28 06:29:04;;;;;;;145.38;46.78;;;;;;;;;;5120862;28;20044;-88
2022/12/28 06:31:31;;;;;;;98.30;46.05;;;;;;;;;;5121587;28;20027;-90
2022/12/28 06:33:58;;;;;;;189.18;74.80;;;;;;;;;;5120290;28;20035;-90
2022/12/28 06:39:28;;;;;;;457.25;182.90;;;;;;;;;;5120998;28;20129;-89
2022/12/28 06:41:54;;;;;;;414.52;158.18;;;;;;;;;;5121392;28;20305;-88
2022/12/28 06:44:20;;;;;;;233.80;95.75;;;;;;;;;;5119525;28;20413;-89
2022/12/28 06:46:46;;;;;;;190.48;84.28;;;;;;;;;;5121305;28;20351;-89
2022/12/28 06:49:12;;;;;;;151.93;68.57;;;;;;;;;;5120890;28;20416;-89
2022/12/28 06:54:41;;;;;;;103.85;45.22;;;;;;;;;;5115921;28;20032;-89
2022/12/28 06:57:08;;;;;;;160.57;58.70;;;;;;;;;;5099365;28;20039;-89
2022/12/28 06:59:34;;;;;;;130.23;53.47;;;;;;;;;;5100203;28;20081;-89
2022/12/28 07:02:00;;;;;;;103.57;45.65;;;;;;;;;;5099312;28;20051;-88
2022/12/28 07:04:26;;;;;;;77.22;36.25;;;;;;;;;;5099201;28;20322;-88
2022/12/28 07:09:55;;;;;;;104.03;36.08;;;;;;;;;;5100173;28;20070;-87
2022/12/28 07:12:21;;;;;;;64.70;28.38;;;;;;;;;;5098998;28;20036;-89
2022/12/28 07:14:48;;;;;;;77.38;29.40;;;;;;;;;;5099015;28;20047;-89
2022/12/28 07:17:14;;;;;;;111.68;39.97;;;;;;;;;;5099357;28;20024;-90
2022/12/28 07:19:40;;;;;;;100.13;37.38;;;;;;;;;;5100121;28;20039;-89
2022/12/28 07:22:06;;;;;;;69.70;29.73;;;;;;;;;;5098732;28;20122;-89
2022/12/28 07:24:32;;;;;;;90.63;35.50;;;;;;;;;;5100035;28;20028;-89
2022/12/28 07:26:58;;;;;;;66.57;28.42;;;;;;;;;;5099678;28;20016;-89
2022/12/28 07:29:24;;;;;;;47.20;21.92;;;;;;;;;;5099723;28;20342;-88
2022/12/28 07:31:50;;;;;;;34.28;17.70;;;;;;;;;;5098591;28;20036;-89
2022/12/28 07:34:16;;;;;;;34.95;16.95;;;;;;;;;;5098718;28;20020;-88
2022/12/28 07:36:42;;;;;;;34.17;16.88;;;;;;;;;;5117544;28;20054;-89
2022/12/28 07:39:09;;;;;;;46.08;19.55;;;;;;;;;;5112183;28;20028;-90
2022/12/28 07:41:35;;;;;;;43.80;17.80;;;;;;;;;;5099927;28;20020;-89
2022/12/28 07:44:01;;;;;;;51.95;18.45;;;;;;;;;;5098447;28;20024;-89
2022/12/28 07:46:29;;;;;;;45.03;14.93;;;;;;;;;;5098456;28;20023;-89
2022/12/28 07:48:56;;;;;;;54.28;19.85;;;;;;;;;;5098526;28;20032;-89
2022/12/28 07:51:23;;;;;;;71.07;22.17;;;;;;;;;;5099564;28;20035;-90
2022/12/28 07:53:50;;;;;;;62.20;19.48;;;;;;;;;;5099764;28;20020;-91
2022/12/28 07:56:16;;;;;;;34.63;16.30;;;;;;;;;;5118104;28;20024;-87
2022/12/28 07:58:47;;;;;;;31.20;14.90;;;;;;;;;;5118681;28;20028;-90
2022/12/28 08:01:14;;;;;;;43.72;17.80;;;;;;;;;;5118626;28;20080;-89
2022/12/28 08:03:41;;;;;;;36.30;16.60;;;;;;;;;;5119509;28;20119;-90
2022/12/28 08:09:12;;;;;;;79.00;25.15;;;;;;;;;;5105517;28;20051;-89
2022/12/28 08:11:42;;;;;;;52.90;23.55;;;;;;;;;;5104064;28;20042;-89
2022/12/28 08:14:08;;;;;;;26.08;14.10;;;;;;;;;;5100325;28;20016;-89
2022/12/28 08:16:36;;;;;;;24.67;13.10;;;;;;;;;;5106415;28;20402;-88
2022/12/28 08:19:02;;;;;;;23.10;12.68;;;;;;;;;;5119150;28;20032;-87
2022/12/28 08:21:47;;;;;;;20.23;11.60;;;;;;;;;;5115717;28;20024;-87
2022/12/28 08:24:17;;;;;;;32.80;12.52;;;;;;;;;;5099071;28;20393;-87
2022/12/28 08:26:44;;;;;;;40.83;15.27;;;;;;;;;;5099281;28;20085;-89
2022/12/28 08:29:11;;;;;;;30.20;11.38;;;;;;;;;;5098735;28;20120;-87
2022/12/28 08:31:39;;;;;;;19.58;8.90;;;;;;;;;;5098893;28;20028;-89
2022/12/28 08:34:07;;;;;;;19.15;8.55;;;;;;;;;;5099755;28;20326;-88
2022/12/28 08:36:33;;;;;;;18.05;8.05;;;;;;;;;;5114736;28;20054;-90
2022/12/28 08:38:59;;;;;;;19.85;8.30;;;;;;;;;;5099585;28;20032;-89
2022/12/28 08:41:26;;;;;;;19.85;10.65;;;;;;;;;;5084731;28;20028;-89
2022/12/28 08:43:53;;;;;;;22.25;12.50;;;;;;;;;;5118066;28;20023;-91
2022/12/28 08:46:21;;;;;;;18.83;10.73;;;;;;;;;;5117913;28;20410;-89
2022/12/28 08:48:48;;;;;;;19.25;10.10;;;;;;;;;;5117790;28;20153;-89
2022/12/28 08:51:15;;;;;;;19.15;10.68;;;;;;;;;;5118924;28;20145;-89
2022/12/28 08:53:41;;;;;;;30.67;14.73;;;;;;;;;;5118491;28;20024;-89
2022/12/28 08:56:11;;;;;;;35.75;16.52;;;;;;;;;;5118641;28;20024;-89
2022/12/28 08:58:38;;;;;;;25.88;12.80;;;;;;;;;;5118685;28;20033;-90
2022/12/28 09:01:08;;;;;;;30.88;15.35;;;;;;;;;;5117850;28;20080;-86
2022/12/28 09:03:36;;;;;;;30.42;14.00;;;;;;;;;;5118532;28;20026;-85
2022/12/28 09:06:39;;;;;;;41.35;21.90;;;;;;;;;;5114950;28;20422;-87
2022/12/28 09:09:06;;;;;;;84.47;39.85;;;;;;;;;;5098009;28;20028;-87
2022/12/28 09:11:33;;;;;;;54.30;26.60;;;;;;;;;;5097035;28;20433;-87
2022/12/28 09:14:00;;;;;;;19.08;9.77;;;;;;;;;;5097881;28;20027;-86
2022/12/28 09:16:27;;;;;;;16.17;8.25;;;;;;;;;;5113916;28;20055;-87
2022/12/28 09:18:55;;;;;;;16.05;8.65;;;;;;;;;;5097853;28;20035;-86
2022/12/28 09:21:39;;;;;;;13.32;7.72;;;;;;;;;;5098087;28;20046;-87
2022/12/28 09:24:05;;;;;;;18.70;11.05;;;;;;;;;;5113895;28;20021;-87
2022/12/28 09:26:33;;;;;;;23.75;11.50;;;;;;;;;;5097890;28;20024;-86
2022/12/28 09:29:00;;;;;;;26.60;13.13;;;;;;;;;;5116922;28;20054;-85
2022/12/28 09:31:27;;;;;;;28.02;13.05;;;;;;;;;;5112610;28;20039;-88
2022/12/28 09:34:03;;;;;;;28.65;15.93;;;;;;;;;;5100965;28;20028;-86
2022/12/28 09:36:36;;;;;;;26.88;14.93;;;;;;;;;;5101907;28;20115;-86
2022/12/28 09:39:04;;;;;;;29.85;13.07;;;;;;;;;;5101007;28;20024;-86
2022/12/28 09:41:30;;;;;;;19.70;9.90;;;;;;;;;;5102087;28;20028;-88
2022/12/28 09:44:15;;;;;;;26.30;13.48;;;;;;;;;;5101695;28;20103;-87
2022/12/28 09:47:01;;;;;;;29.63;12.70;;;;;;;;;;5112574;28;20027;-88
2022/12/28 09:49:46;;;;;;;19.83;8.80;;;;;;;;;;5009711;28;20128;-85
2022/12/28 09:55:17;;;;;;;;;;;;;;;;;;5035017;28;20330;-86
2022/12/28 09:57:54;;;;;;;33.90;15.23;;;;;;;;;;5022364;28;19948;-89
2022/12/28 10:00:27;;;;;;;20.52;9.32;;;;;;;;;;5023074;28;20038;-90
2022/12/28 10:03:15;;;;;;;31.63;14.38;;;;;;;;;;5039656;28;20113;-89
2022/12/28 10:05:41;;;;;;;45.33;24.17;;;;;;;;;;5023030;28;20039;-90
2022/12/28 10:08:27;;;;;;;47.33;24.83;;;;;;;;;;5025789;28;20034;-89
2022/12/28 10:10:53;;;;;;;21.38;11.55;;;;;;;;;;5039460;28;20459;-89
2022/12/28 10:13:20;;;;;;;21.90;11.18;;;;;;;;;;5039268;28;20319;-89
2022/12/28 10:15:47;;;;;;;33.50;17.98;;;;;;;;;;5039434;28;20297;-89
2022/12/28 10:18:14;;;;;;;30.23;14.60;;;;;;;;;;5039257;28;20084;-89
2022/12/28 10:20:42;;;;;;;21.48;11.07;;;;;;;;;;5021913;28;20025;-89
2022/12/28 10:23:29;;;;;;;20.50;10.82;;;;;;;;;;5039360;28;20079;-88
2022/12/28 10:25:57;;;;;;;25.58;12.77;;;;;;;;;;5035061;28;20035;-89
2022/12/28 10:28:25;;;;;;;23.63;13.27;;;;;;;;;;5102357;28;20429;-87
2022/12/28 10:31:08;;;;;;;27.38;10.05;;;;;;;;;;5106962;28;20032;-87
2022/12/28 10:33:38;;;;;;;22.58;10.18;;;;;;;;;;5120514;28;20046;-90
2022/12/28 10:39:26;;;;;;;28.17;10.73;;;;;;;;;;5100870;28;20177;-89
2022/12/28 10:41:53;;;;;;;29.95;14.00;;;;;;;;;;5100751;28;20751;-88
2022/12/28 10:44:26;;;;;;;22.10;11.10;;;;;;;;;;5101102;28;20024;-89
2022/12/28 10:46:54;;;;;;;22.15;12.45;;;;;;;;;;5100063;28;20028;-88
2022/12/28 10:49:20;;;;;;;21.77;11.00;;;;;;;;;;5100779;28;20110;-89
2022/12/28 10:55:23;;;;;;;15.15;7.85;;;;;;;;;;5100426;28;20108;-90
2022/12/28 10:57:49;;;;;;;25.35;11.68;;;;;;;;;;5100118;28;20031;-88
2022/12/28 11:00:19;;;;;;;22.08;9.90;;;;;;;;;;5100517;28;20028;-89
2022/12/28 11:02:46;;;;;;;25.75;12.38;;;;;;;;;;5099514;28;20473;-89
2022/12/28 11:05:23;;;;;;;25.85;11.27;;;;;;;;;;5099178;28;20088;-88
2022/12/28 11:07:49;;;;;;;33.75;15.43;;;;;;;;;;5099279;28;20024;-89
2022/12/28 11:10:19;;;;;;;21.10;10.82;;;;;;;;;;5101906;28;20024;-91
2022/12/28 11:12:45;;;;;;;26.20;11.15;;;;;;;;;;5109346;28;20059;-90
2022/12/28 11:15:16;;;;;;;18.80;9.20;;;;;;;;;;5117381;28;20136;-89
2022/12/28 11:17:43;;;;;;;12.32;6.30;;;;;;;;;;5120533;28;20099;-89
2022/12/28 11:20:12;;;;;;;18.77;9.18;;;;;;;;;;5100011;28;20028;-89
2022/12/28 11:22:38;;;;;;;12.65;7.13;;;;;;;;;;5100179;28;20295;-88
2022/12/28 11:25:05;;;;;;;14.60;6.65;;;;;;;;;;5098864;28;20426;-89
2022/12/28 11:27:31;;;;;;;16.80;7.43;;;;;;;;;;5099803;28;20024;-89
2022/12/28 11:29:57;;;;;;;10.77;6.05;;;;;;;;;;5099616;28;20044;-89
2022/12/28 11:32:25;;;;;;;12.80;6.07;;;;;;;;;;5099017;28;20022;-89
2022/12/28 11:34:52;;;;;;;15.95;7.43;;;;;;;;;;5106115;28;20039;-87
2022/12/28 11:37:18;;;;;;;18.10;7.45;;;;;;;;;;5120132;28;20059;-86
2022/12/28 11:39:45;;;;;;;17.80;8.88;;;;;;;;;;5118831;28;20039;-84
2022/12/28 11:42:32;;;;;;;24.25;10.50;;;;;;;;;;5119084;28;20020;-90
2022/12/28 11:45:24;;;;;;;21.13;8.43;;;;;;;;;;5115459;28;20038;-88
2022/12/28 11:47:50;;;;;;;16.30;7.38;;;;;;;;;;5035793;28;20021;-88
2022/12/28 11:50:35;;;;;;;19.45;9.07;;;;;;;;;;5040946;28;20072;-87
2022/12/28 11:53:03;;;;;;;16.55;7.28;;;;;;;;;;5038806;28;20043;-89
2022/12/28 11:55:58;;;;;;;34.20;13.30;;;;;;;;;;5057522;28;20120;-87
2022/12/28 11:58:30;;;;;;;31.27;15.13;;;;;;;;;;4963886;28;20039;-86
2022/12/28 12:00:58;;;;;;;15.65;9.65;;;;;;;;;;4943316;28;20038;-87
2022/12/28 12:03:57;;;;;;;19.70;9.90;;;;;;;;;;4960163;28;20055;-88
2022/12/28 12:06:41;;;;;;;21.45;11.70;;;;;;;;;;4912060;29;20047;-89
2022/12/28 12:09:22;;;;;;;31.90;13.32;;;;;;;;;;4901833;29;20071;-88
2022/12/28 12:11:52;;;;;;;25.02;11.20;;;;;;;;;;4905275;29;20130;-88
2022/12/28 12:14:23;;;;;;;22.40;11.27;;;;;;;;;;4902175;29;20040;-88
2022/12/28 12:17:06;;;;;;;20.38;9.93;;;;;;;;;;4905386;29;20048;-87
2022/12/28 12:19:35;;;;;;;22.73;10.75;;;;;;;;;;4920737;29;20028;-87
2022/12/28 12:22:04;;;;;;;23.67;11.82;;;;;;;;;;4912385;29;20032;-88
2022/12/28 12:24:40;;;;;;;26.38;12.40;;;;;;;;;;4927516;29;20062;-88
2022/12/28 12:27:25;;;;;;;29.98;14.70;;;;;;;;;;4958797;29;20035;-89
2022/12/28 12:29:59;;;;;;;37.15;17.63;;;;;;;;;;4958728;28;20055;-88
2022/12/28 12:32:34;;;;;;;16.33;8.70;;;;;;;;;;4958528;28;20027;-88
2022/12/28 12:35:04;;;;;;;25.20;11.15;;;;;;;;;;5000997;28;20432;-86
2022/12/28 12:37:54;;;;;;;21.05;10.00;;;;;;;;;;5036203;28;20026;-89
2022/12/28 12:40:46;;;;;;;26.73;10.85;;;;;;;;;;5021790;28;20140;-87
2022/12/28 12:43:31;;;;;;;23.50;11.93;;;;;;;;;;5097434;28;20028;-88
2022/12/28 12:46:06;;;;;;;21.70;10.43;;;;;;;;;;5102708;28;20015;-89
2022/12/28 12:48:44;;;;;;;17.42;9.60;;;;;;;;;;5118853;28;20032;-88
2022/12/28 12:51:10;;;;;;;24.33;12.18;;;;;;;;;;5118375;28;20054;-89
2022/12/28 12:53:49;;;;;;;24.83;11.98;;;;;;;;;;5117501;28;20024;-88
2022/12/28 12:56:28;;;;;;;22.90;11.63;;;;;;;;;;5116741;28;20039;-88
2022/12/28 12:59:00;;;;;;;26.77;12.82;;;;;;;;;;5116820;28;20380;-87
2022/12/28 13:01:26;;;;;;;;;;;;;;;;;;5118151;28;20028;-87
2022/12/28 13:03:54;;;;;;;20.30;10.50;;;;;;;;;;5118271;28;19948;-88
2022/12/28 13:06:25;;;;;;;23.80;12.93;;;;;;;;;;5117172;28;20058;-87
2022/12/28 13:08:53;;;;;;;24.48;12.23;;;;;;;;;;5116687;28;20036;-87
2022/12/28 13:11:20;;;;;;;19.08;9.63;;;;;;;;;;5118060;28;20035;-87
2022/12/28 13:13:50;;;;;;;26.30;10.13;;;;;;;;;;5117908;28;20064;-87
2022/12/28 13:16:18;;;;;;;39.75;20.38;;;;;;;;;;5111575;28;20085;-89
2022/12/28 13:18:57;;;;;;;40.17;19.33;;;;;;;;;;5101706;28;20114;-91
2022/12/28 13:27:17;;;;;;;14.43;8.05;;;;;;;;;;5098015;28;20026;-88
2022/12/28 13:29:50;;;;;;;17.60;9.82;;;;;;;;;;5097961;28;20040;-89
2022/12/28 13:32:27;;;;;;;20.50;12.18;;;;;;;;;;5096508;28;20048;-88
2022/12/28 13:34:56;;;;;;;52.45;31.42;;;;;;;;;;5098071;28;20405;-93
2022/12/28 13:37:22;;;;;;;33.00;17.55;;;;;;;;;;5097598;28;20028;-87
2022/12/28 13:39:48;;;;;;;37.05;20.63;;;;;;;;;;5096609;28;20024;-87
2022/12/28 13:42:17;;;;;;;31.75;17.05;;;;;;;;;;5097984;28;20028;-88
2022/12/28 13:44:43;;;;;;;33.92;17.70;;;;;;;;;;5097466;28;20032;-89
2022/12/28 13:47:18;;;;;;;50.65;25.27;;;;;;;;;;5097675;28;20028;-87
2022/12/28 13:50:13;;;;;;;55.03;26.00;;;;;;;;;;5097734;28;20029;-88
2022/12/28 13:52:39;;;;;;;40.40;21.30;;;;;;;;;;5007312;28;20029;-89
2022/12/28 13:55:11;;;;;;;40.53;21.63;;;;;;;;;;5035947;28;20044;-89
2022/12/28 13:57:38;;;;;;;33.83;17.43;;;;;;;;;;5035750;28;20037;-88
2022/12/28 14:00:04;;;;;;;28.75;13.40;;;;;;;;;;5019005;28;20283;-89
2022/12/28 14:02:32;;;;;;;23.88;12.10;;;;;;;;;;5015850;28;20045;-88
2022/12/28 14:04:59;;;;;;;19.77;10.85;;;;;;;;;;4999608;28;20026;-93
2022/12/28 14:07:27;;;;;;;23.52;12.75;;;;;;;;;;5016082;28;20026;-87
2022/12/28 14:09:53;;;;;;;22.52;13.05;;;;;;;;;;5015870;28;20121;-88
2022/12/28 14:12:19;;;;;;;30.52;13.48;;;;;;;;;;4999367;28;20041;-87
2022/12/28 14:14:46;;;;;;;26.10;13.70;;;;;;;;;;5015663;28;20033;-87
2022/12/28 14:17:12;;;;;;;89.35;25.45;;;;;;;;;;5015798;28;20131;-87
2022/12/28 14:19:39;;;;;;;199.00;48.22;;;;;;;;;;5019207;28;20358;-92
2022/12/28 14:25:12;;;;;;;137.38;56.35;;;;;;;;;;5019571;28;20388;-89
2022/12/28 14:27:39;;;;;;;94.90;42.97;;;;;;;;;;5015630;28;20024;-90
2022/12/28 14:30:07;;;;;;;84.88;37.40;;;;;;;;;;5096473;28;20052;-92
2022/12/28 14:32:34;;;;;;;75.47;32.58;;;;;;;;;;5100120;28;20032;-92
2022/12/28 14:35:01;;;;;;;50.00;24.42;;;;;;;;;;5103434;28;20026;-91
2022/12/28 14:37:53;;;;;;;41.05;19.40;;;;;;;;;;5113442;28;20142;-89
2022/12/28 14:40:35;;;;;;;40.20;21.25;;;;;;;;;;5121467;28;20032;-88
2022/12/28 14:43:17;;;;;;;54.47;25.42;;;;;;;;;;5121479;28;20027;-89
2022/12/28 14:45:47;;;;;;;40.28;19.20;;;;;;;;;;5100085;28;20081;-89
2022/12/28 14:48:41;;;;;;;37.45;20.00;;;;;;;;;;5099640;28;20051;-88
2022/12/28 14:51:16;;;;;;;40.92;21.25;;;;;;;;;;5098433;28;20107;-90
2022/12/28 14:53:43;;;;;;;66.60;30.48;;;;;;;;;;5099587;28;20062;-90
2022/12/28 14:56:10;;;;;;;60.75;29.45;;;;;;;;;;5100672;28;20024;-89
2022/12/28 14:58:38;;;;;;;60.25;27.70;;;;;;;;;;5119749;28;20024;-90
2022/12/28 15:01:05;;;;;;;101.47;43.47;;;;;;;;;;5120209;28;20432;-90
2022/12/28 15:03:47;;;;;;;136.07;52.63;;;;;;;;;;5120665;28;20028;-89
2022/12/28 15:06:13;;;;;;;110.55;48.13;;;;;;;;;;5120573;28;20069;-91
2022/12/28 15:11:44;;;;;;;139.00;52.33;;;;;;;;;;5100548;28;20078;-91
2022/12/28 15:14:10;;;;;;;400.73;110.68;;;;;;;;;;5099841;28;20053;-90
2022/12/28 15:16:37;;;;;;;331.40;89.50;;;;;;;;;;5101011;28;20047;-89
2022/12/28 15:19:03;;;;;;;278.88;72.18;;;;;;;;;;5105383;28;20032;-90
2022/12/28 15:21:31;;;;;;;122.78;40.80;;;;;;;;;;5109621;28;20028;-89
2022/12/28 15:23:57;;;;;;;91.55;33.38;;;;;;;;;;5120328;28;20039;-88
2022/12/28 15:26:26;;;;;;;64.60;28.67;;;;;;;;;;5120278;28;20031;-89
2022/12/28 15:28:52;;;;;;;55.95;26.02;;;;;;;;;;5119400;28;20063;-89
2022/12/28 15:31:19;;;;;;;88.40;36.50;;;;;;;;;;5119512;28;20114;-89
2022/12/28 15:33:46;;;;;;;89.95;38.67;;;;;;;;;;5103752;28;20028;-89
2022/12/28 15:36:13;;;;;;;83.70;37.42;;;;;;;;;;5098735;28;20036;-89
2022/12/28 15:38:39;;;;;;;74.70;34.67;;;;;;;;;;5099685;28;20108;-89
2022/12/28 15:41:44;;;;;;;67.50;31.25;;;;;;;;;;5099565;28;20321;-87
2022/12/28 15:43:52;;;;;;;76.10;34.03;;;;;;;;;;5099418;28;20059;-88
2022/12/28 15:46:18;;;;;;;113.18;45.90;;;;;;;;;;5098681;28;20028;-89
2022/12/28 15:48:44;;;;;;;224.82;87.15;;;;;;;;;;5099691;28;20028;-90
2022/12/28 15:51:10;;;;;;;253.07;92.55;;;;;;;;;;5098492;28;20024;-89
2022/12/28 15:53:36;;;;;;;308.58;105.00;;;;;;;;;;5098399;28;20032;-89
2022/12/28 15:56:02;;;;;;;216.25;81.30;;;;;;;;;;5099110;28;20036;-89
2022/12/28 15:58:29;;;;;;;188.85;74.63;;;;;;;;;;5098936;28;20355;-87
2022/12/28 16:00:55;;;;;;;118.32;53.88;;;;;;;;;;5114735;28;20160;-89
2022/12/28 16:03:21;;;;;;;139.52;65.13;;;;;;;;;;5119672;28;20066;-90
2022/12/28 16:05:47;;;;;;;199.18;74.75;;;;;;;;;;5109497;28;20036;-90
2022/12/28 16:11:17;;;;;;;139.98;50.05;;;;;;;;;;5099194;28;20046;-90
2022/12/28 16:13:43;;;;;;;105.00;39.08;;;;;;;;;;5098756;28;20027;-90
2022/12/28 16:16:11;;;;;;;73.25;29.48;;;;;;;;;;5098802;28;20322;-89
2022/12/28 16:18:37;;;;;;;62.92;27.05;;;;;;;;;;5098968;28;20089;-90
2022/12/28 16:21:05;;;;;;;55.28;26.00;;;;;;;;;;5099101;28;20100;-90
2022/12/28 16:23:35;;;;;;;47.15;25.67;;;;;;;;;;5104435;28;20020;-90